Time;durP1;ratioP1;P1;durP2;ratioP2;P2;SDS_P1;SDS_P2;PMS_P1;PMS_P2;Temp;Humidity;BMP_temperature;BMP_pressure;BME280_temperature;BME280_humidity;BME280_pressure;Samples;Min_cycle;Max_cycle;Signal;HPM_P1;HPM_P2
2021/08/05 00:02:11;;;;;;;2.33;1.80;;;;;;;15.05;80.01;92351.41;2048841;70;20139;-79
2021/08/05 00:04:37;;;;;;;2.92;2.10;;;;;;;15.12;79.53;92356.66;2049020;70;20154;-79
2021/08/05 00:07:04;;;;;;;3.42;2.28;;;;;;;15.14;79.48;92353.16;2049275;70;20151;-79
2021/08/05 00:09:29;;;;;;;4.20;2.80;;;;;;;15.11;79.58;92358.03;2049036;69;20139;-79
2021/08/05 00:11:55;;;;;;;3.67;2.75;;;;;;;15.08;79.48;92356.50;2049098;70;20604;-79
2021/08/05 00:14:21;;;;;;;4.65;2.70;;;;;;;15.09;79.95;92345.88;2049009;70;20618;-79
2021/08/05 00:16:46;;;;;;;3.70;2.70;;;;;;;15.04;80.25;92350.69;2049134;69;20147;-79
2021/08/05 00:19:12;;;;;;;2.80;2.10;;;;;;;14.60;82.61;92347.53;2049172;70;20587;-79
2021/08/05 00:21:38;;;;;;;4.75;1.90;;;;;;;14.68;82.05;92344.28;2049084;70;20151;-79
2021/08/05 00:24:03;;;;;;;4.72;2.10;;;;;;;14.88;80.88;92347.19;2048872;70;20150;-77
2021/08/05 00:26:29;;;;;;;4.90;2.00;;;;;;;14.95;80.53;92337.56;2049096;70;20229;-76
2021/08/05 00:28:55;;;;;;;3.25;2.03;;;;;;;15.02;78.31;92342.06;2048962;69;20150;-76
2021/08/05 00:31:20;;;;;;;2.85;2.10;;;;;;;14.99;79.25;92338.44;2049113;70;20143;-77
2021/08/05 00:33:46;;;;;;;3.80;2.30;;;;;;;14.88;81.30;92339.41;2048826;70;20498;-77
2021/08/05 00:36:12;;;;;;;2.58;2.10;;;;;;;14.82;81.75;92321.47;2048927;70;20138;-77
2021/08/05 00:38:37;;;;;;;2.80;2.13;;;;;;;14.85;79.86;92328.69;2048934;70;20237;-77
2021/08/05 00:41:03;;;;;;;2.60;2.38;;;;;;;14.80;81.77;92315.69;2049174;70;20518;-77
2021/08/05 00:43:29;;;;;;;3.22;2.42;;;;;;;14.95;79.69;92324.13;2061856;69;20526;-77
2021/08/05 00:45:55;;;;;;;3.08;2.75;;;;;;;14.97;79.67;92329.84;2048897;70;20158;-77
2021/08/05 00:48:23;;;;;;;3.55;2.50;;;;;;;14.98;79.83;92322.81;2061745;69;20142;-77
2021/08/05 00:50:49;;;;;;;5.22;3.17;;;;;;;14.96;80.56;92319.91;2048931;70;20138;-77
2021/08/05 00:53:15;;;;;;;3.05;2.25;;;;;;;14.93;80.88;92314.78;2048893;70;20236;-77
2021/08/05 00:55:41;;;;;;;2.85;2.30;;;;;;;14.88;80.34;92313.91;2061832;69;20169;-77
2021/08/05 00:58:07;;;;;;;4.68;2.55;;;;;;;14.89;79.54;92317.47;2048901;70;20222;-77
2021/08/05 01:00:33;;;;;;;2.58;2.33;;;;;;;14.93;79.62;92306.28;2061757;69;20166;-77
2021/08/05 01:03:26;;;;;;;2.60;2.05;;;;;;;15.00;79.85;92308.72;2061661;69;20219;-77
2021/08/05 01:06:02;;;;;;;2.60;1.85;;;;;;;14.98;80.04;92302.22;2048957;69;20587;-76
2021/08/05 01:08:29;;;;;;;4.88;2.15;;;;;;;14.84;80.77;92310.91;2061773;69;20302;-77
2021/08/05 01:11:04;;;;;;;2.28;1.90;;;;;;;15.00;78.82;92308.72;2061830;69;20167;-76
2021/08/05 01:13:40;;;;;;;3.70;2.08;;;;;;;14.96;80.30;92302.91;2061755;69;20229;-77
2021/08/05 01:16:10;;;;;;;4.68;2.13;;;;;;;14.96;80.40;92308.56;2061777;69;20181;-76
2021/08/05 01:18:40;;;;;;;3.80;2.22;;;;;;;14.82;81.00;92304.47;2048751;70;20230;-76
2021/08/05 01:21:49;;;;;;;3.33;2.72;;;;;;;14.55;82.73;92309.09;2048979;70;20150;-77
2021/08/05 01:24:19;;;;;;;3.97;3.10;;;;;;;14.61;81.74;92308.59;2048768;69;20193;-77
2021/08/05 01:26:48;;;;;;;3.78;3.13;;;;;;;14.84;80.91;92310.19;2048809;69;20265;-77
2021/08/05 01:29:15;;;;;;;3.80;3.40;;;;;;;14.89;80.84;92312.56;2048846;70;20138;-78
2021/08/05 01:31:43;;;;;;;3.90;3.05;;;;;;;14.92;80.84;92304.84;2061744;69;20151;-78
2021/08/05 01:34:13;;;;;;;4.93;3.10;;;;;;;14.94;80.41;92304.94;2061580;69;20154;-78
2021/08/05 01:36:43;;;;;;;5.30;3.15;;;;;;;14.91;80.58;92306.97;2048740;70;20154;-78
2021/08/05 01:39:10;;;;;;;4.65;2.30;;;;;;;14.91;78.56;92295.63;2048874;69;20162;-78
2021/08/05 01:41:37;;;;;;;3.70;2.53;;;;;;;14.81;80.75;92305.84;2048807;70;20157;-78
2021/08/05 01:44:08;;;;;;;2.72;2.33;;;;;;;14.92;80.23;92299.91;2061693;69;20163;-78
2021/08/05 01:46:34;;;;;;;4.18;2.97;;;;;;;14.81;81.00;92303.75;2048925;70;20538;-77
2021/08/05 01:49:01;;;;;;;3.85;3.38;;;;;;;14.74;80.51;92296.38;2048693;69;20590;-78
2021/08/05 01:51:28;;;;;;;3.83;3.13;;;;;;;14.88;80.63;92294.06;2048875;70;20149;-78
2021/08/05 01:53:54;;;;;;;4.80;3.45;;;;;;;14.89;78.80;92284.22;2058935;69;20526;-78
2021/08/05 01:56:21;;;;;;;4.28;3.50;;;;;;;14.89;79.04;92294.81;2061703;69;20154;-78
2021/08/05 01:58:47;;;;;;;4.70;4.25;;;;;;;14.88;80.03;92294.06;2061563;69;20209;-78
2021/08/05 02:01:15;;;;;;;6.70;3.90;;;;;;;14.90;80.57;92284.94;2061700;69;20142;-78
2021/08/05 02:03:47;;;;;;;3.22;2.28;;;;;;;14.95;79.53;92283.72;2048639;69;20166;-78
2021/08/05 02:06:23;;;;;;;3.40;2.90;;;;;;;14.83;81.02;92288.91;2048871;70;20229;-78
2021/08/05 02:09:00;;;;;;;5.40;3.80;;;;;;;14.78;81.62;92285.19;2048739;70;20610;-77
2021/08/05 02:11:27;;;;;;;4.15;3.60;;;;;;;14.85;80.93;92284.06;2061605;69;20161;-79
2021/08/05 02:13:55;;;;;;;5.30;3.20;;;;;;;14.83;81.14;92289.63;2061628;69;20139;-78
2021/08/05 02:16:24;;;;;;;6.72;2.80;;;;;;;14.84;80.75;92282.59;2061672;69;20154;-78
2021/08/05 02:18:52;;;;;;;3.80;1.73;;;;;;;14.89;80.47;92289.13;2061505;69;20598;-78
2021/08/05 02:21:23;;;;;;;3.05;1.70;;;;;;;14.87;80.64;92278.47;2061618;69;20147;-78
2021/08/05 02:23:50;;;;;;;2.90;1.83;;;;;;;14.87;81.38;92280.56;2061586;69;20249;-78
2021/08/05 02:26:16;;;;;;;4.22;3.40;;;;;;;14.86;81.06;92277.00;2061608;69;20158;-78
2021/08/05 02:28:42;;;;;;;7.93;4.00;;;;;;;14.65;82.40;92274.75;2061700;69;20212;-77
2021/08/05 02:31:08;;;;;;;5.45;3.78;;;;;;;14.77;81.51;92286.56;2061614;69;20146;-78
2021/08/05 02:33:36;;;;;;;5.55;3.38;;;;;;;14.83;80.73;92278.28;2061457;69;20143;-78
2021/08/05 02:36:03;;;;;;;2.13;1.55;;;;;;;14.89;80.26;92286.31;2061622;69;20313;-78
2021/08/05 02:38:29;;;;;;;4.85;1.40;;;;;;;14.85;80.34;92278.41;2048674;70;20153;-78
2021/08/05 02:40:55;;;;;;;4.53;1.70;;;;;;;14.90;80.29;92288.50;2048721;70;20182;-78
2021/08/05 02:43:25;;;;;;;1.88;1.40;;;;;;;14.87;80.70;92289.78;2048646;69;20634;-78
2021/08/05 02:45:51;;;;;;;5.82;1.30;;;;;;;14.85;80.66;92280.50;2061547;69;20212;-78
2021/08/05 02:48:17;;;;;;;2.65;1.00;;;;;;;14.90;80.00;92285.66;2061701;69;20154;-79
2021/08/05 02:50:44;;;;;;;4.47;1.20;;;;;;;14.90;80.56;92284.94;2062062;69;20143;-78
2021/08/05 02:53:11;;;;;;;1.10;0.85;;;;;;;14.91;79.84;92283.56;2062001;69;20249;-78
2021/08/05 02:55:38;;;;;;;3.83;1.00;;;;;;;14.88;80.27;92279.91;2049131;70;20151;-78
2021/08/05 02:58:05;;;;;;;2.60;1.30;;;;;;;14.85;80.78;92275.56;2049258;70;20149;-78
2021/08/05 03:00:31;;;;;;;4.10;1.30;;;;;;;14.81;80.83;92274.69;2061972;69;20150;-78
2021/08/05 03:02:57;;;;;;;2.83;1.35;;;;;;;14.81;80.97;92283.91;2061857;69;20245;-78
2021/08/05 03:05:23;;;;;;;4.78;1.10;;;;;;;14.82;81.03;92278.97;2049150;70;20155;-78
2021/08/05 03:07:48;;;;;;;3.00;1.10;;;;;;;14.86;80.39;92282.69;2049115;70;20225;-78
2021/08/05 03:10:16;;;;;;;1.65;0.90;;;;;;;14.88;80.14;92282.75;2049138;70;20572;-78
2021/08/05 03:12:42;;;;;;;1.58;1.25;;;;;;;14.87;80.28;92291.91;2049143;70;20185;-78
2021/08/05 03:15:09;;;;;;;3.03;1.20;;;;;;;14.86;80.58;92285.50;2049103;69;20146;-78
2021/08/05 03:17:35;;;;;;;1.83;1.00;;;;;;;14.88;79.58;92288.41;2049021;69;20265;-78
2021/08/05 03:20:01;;;;;;;1.90;1.58;;;;;;;14.89;79.98;92284.22;2049060;70;20521;-78
2021/08/05 03:22:28;;;;;;;3.50;2.03;;;;;;;14.84;80.04;92288.25;2049199;70;20592;-78
2021/08/05 03:24:53;;;;;;;3.17;1.95;;;;;;;14.88;79.79;92290.53;2049190;70;20230;-78
2021/08/05 03:27:19;;;;;;;2.33;1.55;;;;;;;14.84;80.17;92291.09;2049192;70;20138;-78
2021/08/05 03:29:45;;;;;;;5.70;1.45;;;;;;;14.83;79.49;92288.91;2049205;70;20193;-78
2021/08/05 03:32:10;;;;;;;1.88;0.60;;;;;;;14.83;80.01;92286.81;2048981;70;20143;-79
2021/08/05 03:34:36;;;;;;;3.45;0.75;;;;;;;14.84;78.93;92288.25;2061957;69;20537;-78
2021/08/05 03:37:01;;;;;;;4.57;0.82;;;;;;;14.83;80.14;92289.63;2049142;69;20139;-78
2021/08/05 03:39:27;;;;;;;2.80;1.10;;;;;;;14.79;79.44;92280.97;2049101;70;20529;-78
2021/08/05 03:41:53;;;;;;;1.70;1.10;;;;;;;14.73;80.02;92283.59;2049155;70;20169;-78
2021/08/05 03:44:19;;;;;;;1.77;1.10;;;;;;;14.74;79.18;92285.03;2049169;70;20586;-77
2021/08/05 03:46:45;;;;;;;1.27;1.10;;;;;;;14.64;80.86;92279.69;2049293;70;20173;-78
2021/08/05 03:49:10;;;;;;;2.08;0.80;;;;;;;14.75;79.42;92277.97;2048913;70;20646;-78
2021/08/05 03:51:36;;;;;;;1.95;0.80;;;;;;;14.75;79.38;92272.31;2049030;70;20150;-79
2021/08/05 03:54:02;;;;;;;1.98;0.40;;;;;;;14.72;78.92;92282.13;2049021;70;20189;-78
2021/08/05 03:56:28;;;;;;;2.47;0.30;;;;;;;14.68;80.44;92271.38;2049042;70;20212;-79
2021/08/05 03:58:53;;;;;;;0.90;0.20;;;;;;;14.79;78.18;92274.59;2048987;70;20190;-78
2021/08/05 04:01:19;;;;;;;3.30;0.40;;;;;;;14.76;78.53;92268.13;2048963;70;20158;-78
2021/08/05 04:03:45;;;;;;;3.90;0.50;;;;;;;14.72;77.36;92268.69;2048879;69;20174;-78
2021/08/05 04:06:11;;;;;;;0.82;0.50;;;;;;;14.79;76.09;92266.81;2049085;70;20146;-79
2021/08/05 04:08:37;;;;;;;3.05;0.50;;;;;;;14.80;76.00;92267.53;2049061;70;20189;-78
2021/08/05 04:11:04;;;;;;;2.55;0.43;;;;;;;14.71;76.15;92267.25;2048977;70;20675;-78
2021/08/05 04:13:29;;;;;;;1.45;0.40;;;;;;;14.80;76.35;92261.88;2049082;69;20151;-78
2021/08/05 04:15:55;;;;;;;0.55;0.35;;;;;;;14.80;76.60;92264.69;2048941;70;20602;-78
2021/08/05 04:18:21;;;;;;;1.48;0.38;;;;;;;14.75;76.13;92266.66;2048828;70;20152;-78
2021/08/05 04:20:46;;;;;;;1.38;0.40;;;;;;;14.72;76.61;92268.69;2049028;70;20151;-78
2021/08/05 04:23:12;;;;;;;2.70;0.38;;;;;;;14.64;77.98;92261.97;2048982;69;20154;-79
2021/08/05 04:25:37;;;;;;;0.40;0.40;;;;;;;14.68;78.73;92260.03;2048911;69;20238;-79
2021/08/05 04:28:03;;;;;;;3.00;0.40;;;;;;;14.72;77.57;92259.47;2048963;70;20155;-79
2021/08/05 04:30:29;;;;;;;1.85;0.20;;;;;;;14.70;78.58;92256.53;2048933;69;20638;-78
2021/08/05 04:32:55;;;;;;;1.95;0.30;;;;;;;14.65;78.12;92264.16;2048713;70;20538;-78
2021/08/05 04:35:21;;;;;;;3.70;0.30;;;;;;;14.59;79.50;92263.94;2049554;70;20141;-78
2021/08/05 04:37:58;;;;;;;1.85;0.32;;;;;;;14.61;79.45;92258.31;2050066;69;20127;-79
2021/08/05 04:40:26;;;;;;;1.05;0.60;;;;;;;14.63;78.59;92269.75;2049538;69;20589;-80
2021/08/05 04:42:52;;;;;;;1.38;0.40;;;;;;;14.67;78.82;92267.09;2048927;70;20154;-80
2021/08/05 04:45:18;;;;;;;2.33;0.55;;;;;;;14.68;78.88;92267.81;2048981;69;20609;-80
2021/08/05 04:48:05;;;;;;;2.67;0.35;;;;;;;14.72;78.92;92267.97;2048748;70;20159;-79
2021/08/05 04:50:34;;;;;;;3.78;0.57;;;;;;;14.73;78.63;92263.75;2048860;69;20166;-78
2021/08/05 04:52:59;;;;;;;3.30;0.55;;;;;;;14.67;77.44;92257.84;2048810;70;20147;-79
2021/08/05 04:55:27;;;;;;;0.85;0.50;;;;;;;14.71;79.39;92252.34;2061916;69;20258;-80
2021/08/05 04:57:55;;;;;;;1.05;0.40;;;;;;;14.61;80.33;92252.66;2048954;70;20617;-79
2021/08/05 05:00:26;;;;;;;1.65;0.40;;;;;;;14.64;80.26;92254.22;2049042;70;20161;-79
2021/08/05 05:02:53;;;;;;;0.75;0.30;;;;;;;14.76;77.32;92253.97;2048770;70;20618;-79
2021/08/05 05:05:19;;;;;;;1.08;0.40;;;;;;;14.75;79.07;92255.31;2048845;69;20141;-79
2021/08/05 05:07:46;;;;;;;1.65;0.57;;;;;;;14.76;79.50;92261.72;2048828;70;20174;-80
2021/08/05 05:10:12;;;;;;;0.60;0.40;;;;;;;14.78;80.09;92256.13;2048795;70;20154;-78
2021/08/05 05:12:39;;;;;;;1.80;0.60;;;;;;;14.59;79.93;92263.94;2048867;69;20150;-78
2021/08/05 05:15:06;;;;;;;2.33;0.30;;;;;;;14.74;78.86;92265.19;2048994;69;20154;-78
2021/08/05 05:17:31;;;;;;;0.30;0.20;;;;;;;14.84;76.10;92262.75;2048720;70;20146;-79
2021/08/05 05:19:57;;;;;;;3.00;0.28;;;;;;;14.84;79.03;92270.53;2048881;69;20236;-78
2021/08/05 05:22:23;;;;;;;0.30;0.20;;;;;;;14.85;77.94;92266.34;2049028;70;20178;-79
2021/08/05 05:24:48;;;;;;;1.13;0.30;;;;;;;14.89;75.10;92272.13;2048836;70;20147;-78
2021/08/05 05:27:14;;;;;;;1.17;0.40;;;;;;;14.88;77.96;92270.69;2048806;69;20244;-79
2021/08/05 05:29:40;;;;;;;0.80;0.30;;;;;;;14.91;77.57;92269.38;2049069;70;20578;-77
2021/08/05 05:32:07;;;;;;;1.17;0.47;;;;;;;14.92;75.39;92273.66;2048728;70;20316;-80
2021/08/05 05:34:33;;;;;;;0.85;0.40;;;;;;;14.82;77.61;92271.19;2048744;70;20610;-78
2021/08/05 05:36:59;;;;;;;1.02;0.40;;;;;;;14.80;75.92;92270.38;2048755;70;20207;-78
2021/08/05 05:39:25;;;;;;;0.70;0.40;;;;;;;14.88;76.11;92273.50;2048880;70;20154;-78
2021/08/05 05:41:50;;;;;;;1.05;0.30;;;;;;;14.94;74.56;92274.50;2048894;69;20162;-78
2021/08/05 05:44:16;;;;;;;1.95;0.50;;;;;;;14.94;76.35;92277.31;2049005;70;20154;-78
2021/08/05 05:46:41;;;;;;;0.60;0.50;;;;;;;14.95;76.70;92272.38;2048754;70;20204;-79
2021/08/05 05:49:07;;;;;;;2.50;0.40;;;;;;;14.98;78.47;92276.72;2048663;70;20609;-79
2021/08/05 05:51:33;;;;;;;1.67;0.50;;;;;;;14.95;77.81;92275.94;2049134;70;20145;-78
2021/08/05 05:53:58;;;;;;;1.23;0.28;;;;;;;15.01;74.44;92281.09;2049016;70;20143;-78
2021/08/05 05:56:24;;;;;;;0.93;0.50;;;;;;;15.04;77.68;92276.97;2049316;70;20157;-79
2021/08/05 05:58:49;;;;;;;1.05;0.45;;;;;;;14.97;77.19;92276.00;2049284;70;20138;-78
2021/08/05 06:01:15;;;;;;;1.42;0.50;;;;;;;15.03;76.29;92281.19;2049146;70;20166;-79
2021/08/05 06:03:40;;;;;;;1.45;0.50;;;;;;;15.03;78.34;92274.78;2048963;70;20138;-78
2021/08/05 06:06:06;;;;;;;3.08;0.60;;;;;;;15.05;78.57;92275.59;2048835;70;20314;-79
2021/08/05 06:08:32;;;;;;;0.50;0.40;;;;;;;15.09;78.29;92281.41;2048748;70;20163;-78
2021/08/05 06:10:57;;;;;;;2.08;0.45;;;;;;;15.04;80.12;92273.41;2048770;70;20142;-79
2021/08/05 06:13:23;;;;;;;2.35;0.40;;;;;;;15.02;80.26;92279.00;2048800;70;20594;-78
2021/08/05 06:15:48;;;;;;;4.68;0.52;;;;;;;15.07;79.52;92289.09;2061559;69;20169;-77
2021/08/05 06:18:14;;;;;;;0.57;0.32;;;;;;;15.13;79.32;92284.41;2048572;70;20590;-78
2021/08/05 06:20:40;;;;;;;0.85;0.40;;;;;;;15.21;78.60;92284.72;2048597;69;20237;-77
2021/08/05 06:23:08;;;;;;;2.83;0.60;;;;;;;15.23;78.50;92287.59;2048882;70;20532;-80
2021/08/05 06:25:36;;;;;;;0.43;0.20;;;;;;;15.30;78.83;92282.16;2049349;69;20160;-80
2021/08/05 06:28:02;;;;;;;2.50;0.40;;;;;;;15.31;77.45;92280.78;2049358;69;20606;-80
2021/08/05 06:30:27;;;;;;;0.70;0.20;;;;;;;15.39;79.12;92284.63;2049264;70;20175;-80
2021/08/05 06:32:53;;;;;;;0.73;0.22;;;;;;;15.38;79.19;92279.63;2049005;70;20261;-79
2021/08/05 06:35:19;;;;;;;1.40;0.25;;;;;;;15.48;80.95;92283.53;2049181;70;20139;-79
2021/08/05 06:37:45;;;;;;;2.15;0.40;;;;;;;15.59;78.41;92287.47;2049181;70;20139;-80
2021/08/05 06:40:11;;;;;;;1.70;0.43;;;;;;;15.67;79.34;92290.66;2049178;70;20154;-79
2021/08/05 06:42:37;;;;;;;1.55;1.13;;;;;;;15.69;78.59;92287.16;2049314;70;20197;-79
2021/08/05 06:45:08;;;;;;;2.13;1.20;;;;;;;15.77;75.56;92283.88;2049155;70;20589;-78
2021/08/05 06:47:38;;;;;;;3.25;1.40;;;;;;;15.28;78.46;92287.75;2049031;70;20539;-79
2021/08/05 06:50:09;;;;;;;2.70;1.10;;;;;;;15.49;77.93;92284.28;2049258;70;20182;-80
2021/08/05 06:52:34;;;;;;;2.92;1.05;;;;;;;15.68;77.53;92288.53;2049355;70;20151;-80
2021/08/05 06:55:03;;;;;;;2.95;1.15;;;;;;;15.68;77.02;92280.75;2049559;69;20206;-79
2021/08/05 06:57:30;;;;;;;2.58;1.40;;;;;;;15.64;77.53;92272.09;2049089;70;20139;-80
2021/08/05 06:59:55;;;;;;;3.88;1.70;;;;;;;15.85;76.42;92282.03;2049074;70;20186;-78
2021/08/05 07:02:21;;;;;;;2.75;0.80;;;;;;;15.95;74.44;92264.63;2049075;70;20510;-78
2021/08/05 07:04:47;;;;;;;2.72;1.10;;;;;;;16.29;75.89;92281.38;2049078;69;20236;-78
2021/08/05 07:07:13;;;;;;;2.08;0.80;;;;;;;16.36;75.21;92278.06;2049085;70;20130;-80
2021/08/05 07:09:38;;;;;;;1.17;0.73;;;;;;;16.43;72.96;92278.97;2059106;69;20146;-80
2021/08/05 07:12:04;;;;;;;1.95;0.75;;;;;;;16.47;73.98;92279.84;2049138;70;20153;-80
2021/08/05 07:14:30;;;;;;;1.83;0.65;;;;;;;16.61;74.02;92278.84;2049081;70;20578;-80
2021/08/05 07:16:59;;;;;;;4.10;0.60;;;;;;;16.66;75.28;92278.31;2049110;70;20607;-78
2021/08/05 07:19:25;;;;;;;1.05;0.90;;;;;;;16.76;74.26;92272.22;2061928;69;20174;-79
2021/08/05 07:21:52;;;;;;;2.75;0.68;;;;;;;16.47;74.61;92279.13;2049116;69;20521;-80
2021/08/05 07:24:18;;;;;;;0.75;0.40;;;;;;;16.38;72.00;92277.41;2049139;69;20157;-79
2021/08/05 07:26:44;;;;;;;0.68;0.40;;;;;;;16.39;72.85;92282.41;2049172;70;20155;-79
2021/08/05 07:29:10;;;;;;;0.52;0.50;;;;;;;16.51;73.69;92282.09;2062006;69;20226;-79
2021/08/05 07:31:42;;;;;;;1.98;0.60;;;;;;;16.60;73.05;92283.81;2049077;70;20153;-78
2021/08/05 07:34:07;;;;;;;4.10;0.50;;;;;;;16.63;70.80;92287.41;2048735;70;20629;-79
2021/08/05 07:36:33;;;;;;;1.52;0.60;;;;;;;16.74;72.79;92277.88;2049078;70;20151;-78
2021/08/05 07:39:02;;;;;;;2.95;0.40;;;;;;;16.86;73.84;92289.63;2049042;70;20218;-79
2021/08/05 07:41:27;;;;;;;0.55;0.45;;;;;;;16.86;75.87;92283.19;2049010;69;20606;-78
2021/08/05 07:43:53;;;;;;;0.70;0.40;;;;;;;16.95;74.85;92294.16;2049221;70;20150;-78
2021/08/05 07:46:18;;;;;;;0.30;0.30;;;;;;;17.02;75.29;92286.53;2049139;70;20162;-78
2021/08/05 07:48:44;;;;;;;1.02;0.40;;;;;;;17.08;77.10;92294.53;2048914;70;20165;-76
2021/08/05 07:51:10;;;;;;;0.52;0.30;;;;;;;17.15;74.14;92287.66;2048968;69;20161;-76
2021/08/05 07:53:36;;;;;;;0.82;0.50;;;;;;;17.11;73.95;92291.09;2061972;69;20167;-77
2021/08/05 07:56:02;;;;;;;1.75;0.57;;;;;;;17.27;74.69;92291.56;2049002;70;20522;-77
2021/08/05 07:58:28;;;;;;;1.23;0.70;;;;;;;17.31;74.95;92293.06;2048892;70;20185;-77
2021/08/05 08:00:53;;;;;;;1.02;0.80;;;;;;;17.40;75.04;92303.28;2049026;70;20242;-77
2021/08/05 08:03:19;;;;;;;4.40;1.30;;;;;;;17.36;75.17;92295.38;2048745;70;20174;-78
2021/08/05 08:05:45;;;;;;;1.85;1.10;;;;;;;17.35;72.06;92299.59;2048912;70;20134;-76
2021/08/05 08:08:11;;;;;;;3.85;1.05;;;;;;;17.56;72.46;92297.38;2048943;70;20153;-79
2021/08/05 08:10:37;;;;;;;2.03;1.08;;;;;;;17.64;73.37;92300.41;2049014;70;20603;-76
2021/08/05 08:13:03;;;;;;;1.33;0.90;;;;;;;17.56;70.99;92297.38;2048926;69;20143;-77
2021/08/05 08:15:29;;;;;;;0.82;0.80;;;;;;;17.48;71.83;92292.16;2048813;70;20217;-78
2021/08/05 08:17:55;;;;;;;1.08;0.75;;;;;;;17.59;69.96;92293.16;2048835;70;20139;-78
2021/08/05 08:20:21;;;;;;;2.28;0.90;;;;;;;17.84;70.91;92294.63;2048967;70;20153;-78
2021/08/05 08:22:47;;;;;;;1.17;0.80;;;;;;;17.83;72.67;92293.16;2048861;70;20237;-77
2021/08/05 08:25:14;;;;;;;1.98;0.80;;;;;;;17.88;72.98;92289.03;2048952;70;20537;-77
2021/08/05 08:27:41;;;;;;;2.47;0.90;;;;;;;17.83;72.99;92290.31;2048888;69;20621;-76
2021/08/05 08:30:09;;;;;;;1.98;0.90;;;;;;;17.86;71.61;92288.97;2048862;69;20590;-76
2021/08/05 08:32:35;;;;;;;2.35;0.70;;;;;;;18.01;71.33;92290.81;2048815;69;20242;-76
2021/08/05 08:35:01;;;;;;;1.60;0.90;;;;;;;17.92;70.77;92292.72;2048830;70;20211;-77
2021/08/05 08:37:27;;;;;;;1.90;0.70;;;;;;;18.19;71.82;92294.16;2048923;70;20150;-77
2021/08/05 08:39:52;;;;;;;2.38;0.70;;;;;;;18.13;68.48;92298.94;2048974;70;20491;-78
2021/08/05 08:42:18;;;;;;;1.88;0.77;;;;;;;18.24;68.79;92297.81;2048957;69;20147;-76
2021/08/05 08:44:44;;;;;;;1.40;0.80;;;;;;;18.24;68.76;92292.13;2049042;70;20147;-76
2021/08/05 08:47:11;;;;;;;2.28;0.80;;;;;;;18.25;69.51;92302.13;2048921;70;20188;-77
2021/08/05 08:49:36;;;;;;;1.75;0.80;;;;;;;18.42;69.53;92297.56;2048876;70;20202;-77
2021/08/05 08:52:03;;;;;;;1.17;0.80;;;;;;;18.44;69.78;92291.91;2048882;70;20226;-77
2021/08/05 08:54:30;;;;;;;1.60;0.75;;;;;;;18.42;68.59;92292.59;2048901;69;20581;-76
2021/08/05 08:56:56;;;;;;;1.25;0.77;;;;;;;18.45;70.56;92299.78;2048878;70;20597;-76
2021/08/05 08:59:23;;;;;;;3.42;0.70;;;;;;;18.58;68.03;92297.25;2048898;69;20163;-74
2021/08/05 09:01:48;;;;;;;1.50;0.70;;;;;;;18.87;70.33;92299.41;2061552;69;20154;-74
2021/08/05 09:04:16;;;;;;;3.38;0.70;;;;;;;18.86;69.01;92297.94;2048992;70;20515;-75
2021/08/05 09:06:44;;;;;;;0.90;0.60;;;;;;;18.96;71.04;92291.75;2048984;70;20142;-75
2021/08/05 09:09:10;;;;;;;1.10;0.70;;;;;;;19.00;70.86;92289.00;2048853;70;20219;-76
2021/08/05 09:11:35;;;;;;;2.67;0.70;;;;;;;19.12;70.18;92286.44;2048851;70;20175;-76
2021/08/05 09:14:01;;;;;;;0.80;0.60;;;;;;;19.55;70.36;92285.22;2048990;70;20235;-76
2021/08/05 09:16:29;;;;;;;1.95;0.60;;;;;;;19.18;68.02;92286.56;2048864;70;20143;-76
2021/08/05 09:19:20;;;;;;;3.42;0.85;;;;;;;18.70;68.66;92289.03;2048730;69;20181;-76
2021/08/05 09:21:53;;;;;;;0.68;0.50;;;;;;;19.23;67.39;92290.94;2048982;70;20150;-76
2021/08/05 09:24:29;;;;;;;2.47;0.50;;;;;;;19.07;66.99;92287.75;2048791;70;20157;-76
2021/08/05 09:27:02;;;;;;;1.38;0.47;;;;;;;18.87;68.99;92292.97;2048808;70;20178;-76
2021/08/05 09:29:27;;;;;;;2.65;0.77;;;;;;;19.24;66.27;92292.44;2048888;70;20154;-76
2021/08/05 09:31:57;;;;;;;0.95;0.52;;;;;;;19.39;65.92;92282.03;2048756;70;20150;-76
2021/08/05 09:34:33;;;;;;;1.48;0.50;;;;;;;19.51;66.73;92278.69;2048873;70;20150;-77
2021/08/05 09:37:01;;;;;;;1.02;0.60;;;;;;;19.65;65.05;92275.44;2048765;70;20127;-76
2021/08/05 09:39:29;;;;;;;0.60;0.50;;;;;;;19.39;65.77;92287.75;2048855;70;20245;-77
2021/08/05 09:41:59;;;;;;;0.90;0.47;;;;;;;19.53;64.82;92282.34;2048773;70;20143;-78
2021/08/05 09:44:36;;;;;;;1.30;0.55;;;;;;;19.86;65.01;92276.59;2048893;70;20150;-77
2021/08/05 09:47:16;;;;;;;0.85;0.50;;;;;;;19.89;62.42;92278.09;2048634;70;20629;-78
2021/08/05 09:49:51;;;;;;;1.67;0.50;;;;;;;20.67;62.34;92280.22;2048863;70;20174;-78
2021/08/05 09:52:27;;;;;;;2.00;0.60;;;;;;;21.43;61.80;92277.09;2048720;70;20155;-78
2021/08/05 09:54:53;;;;;;;1.58;0.70;;;;;;;21.04;61.07;92275.81;2048830;70;20150;-78
2021/08/05 09:57:27;;;;;;;1.75;0.77;;;;;;;20.56;59.62;92276.47;2048784;70;20536;-77
2021/08/05 10:00:04;;;;;;;2.50;0.63;;;;;;;20.88;61.26;92275.53;2049224;70;20162;-78
2021/08/05 10:02:57;;;;;;;0.85;0.40;;;;;;;21.70;57.40;92274.59;2049048;70;20577;-77
2021/08/05 10:05:25;;;;;;;1.15;0.60;;;;;;;21.87;56.94;92272.66;2049430;69;20684;-77
2021/08/05 10:07:56;;;;;;;4.75;0.77;;;;;;;21.78;57.48;92269.69;2049367;69;20138;-78
2021/08/05 10:10:27;;;;;;;0.63;0.50;;;;;;;21.99;58.15;92261.31;2049228;69;20220;-77
2021/08/05 10:12:57;;;;;;;2.03;0.52;;;;;;;21.63;57.19;92268.09;2049252;69;20526;-77
2021/08/05 10:15:23;;;;;;;3.13;0.43;;;;;;;21.65;56.91;92262.38;2049203;70;20139;-77
2021/08/05 10:17:54;;;;;;;0.65;0.47;;;;;;;21.53;57.46;92254.34;2049153;69;20146;-77
2021/08/05 10:20:21;;;;;;;1.58;0.50;;;;;;;21.60;54.31;92257.28;2062024;69;20139;-77
2021/08/05 10:22:49;;;;;;;1.83;0.40;;;;;;;21.73;54.78;92253.16;2049175;70;20146;-77
2021/08/05 10:25:16;;;;;;;1.15;0.52;;;;;;;21.10;55.11;92255.16;2049220;70;20150;-77
2021/08/05 10:27:43;;;;;;;0.60;0.50;;;;;;;22.08;53.55;92248.53;2049199;70;20134;-77
2021/08/05 10:30:12;;;;;;;0.75;0.30;;;;;;;23.35;53.49;92244.66;2049300;70;20147;-77
2021/08/05 10:32:39;;;;;;;0.63;0.32;;;;;;;23.57;49.36;92247.66;2062010;69;20150;-77
2021/08/05 10:35:10;;;;;;;1.38;0.40;;;;;;;24.16;49.64;92244.31;2049186;70;20142;-78
2021/08/05 10:37:37;;;;;;;0.90;0.57;;;;;;;22.51;50.21;92237.53;2049186;70;20650;-78
2021/08/05 10:40:06;;;;;;;0.30;0.25;;;;;;;21.62;51.38;92237.25;2049239;70;20174;-77
2021/08/05 10:42:33;;;;;;;0.50;0.40;;;;;;;20.92;53.35;92241.28;2049148;70;20154;-75
2021/08/05 10:44:59;;;;;;;0.68;0.43;;;;;;;21.41;53.30;92245.59;2049148;70;20161;-75
2021/08/05 10:47:27;;;;;;;0.77;0.38;;;;;;;21.28;52.89;92241.81;2049018;70;20142;-77
2021/08/05 10:49:58;;;;;;;1.52;0.45;;;;;;;20.93;56.09;92232.00;2049170;69;20151;-77
2021/08/05 10:52:37;;;;;;;2.28;0.70;;;;;;;20.80;54.88;92238.94;2049147;70;20158;-77
2021/08/05 10:55:19;;;;;;;0.47;0.43;;;;;;;21.33;55.10;92245.47;2049145;70;20161;-77
2021/08/05 10:57:57;;;;;;;1.00;0.70;;;;;;;21.19;55.58;92239.53;2049395;70;20205;-77
2021/08/05 11:00:23;;;;;;;1.95;0.60;;;;;;;21.37;56.38;92245.53;2049264;70;20502;-77
2021/08/05 11:02:56;;;;;;;2.65;0.70;;;;;;;21.55;55.57;92248.63;2048984;70;20629;-78
2021/08/05 11:05:21;;;;;;;1.02;0.50;;;;;;;23.24;53.93;92241.00;2049131;69;20142;-78
2021/08/05 11:08:14;;;;;;;0.47;0.40;;;;;;;23.45;52.88;92243.97;2049135;70;20146;-77
2021/08/05 11:10:39;;;;;;;0.70;0.60;;;;;;;25.25;47.71;92245.91;2051188;70;20142;-78
2021/08/05 11:13:07;;;;;;;2.35;0.50;;;;;;;28.79;41.17;92244.00;2051142;70;20154;-77
2021/08/05 11:15:33;;;;;;;3.30;0.90;;;;;;;31.69;36.46;92247.72;2051167;70;20178;-77
2021/08/05 11:18:10;;;;;;;1.20;0.60;;;;;;;33.39;31.73;92255.28;2051043;70;20142;-78
2021/08/05 11:20:43;;;;;;;0.47;0.40;;;;;;;34.05;31.17;92250.97;2051089;70;20214;-78
2021/08/05 11:25:58;;;;;;;2.20;0.38;;;;;;;31.30;31.26;92242.91;2051067;70;20154;-77
2021/08/05 11:28:28;;;;;;;0.40;0.40;;;;;;;34.49;30.06;92242.13;2051199;70;20220;-76
2021/08/05 11:30:59;;;;;;;0.63;0.40;;;;;;;36.25;25.49;92247.63;2051099;70;20150;-76
2021/08/05 11:33:33;;;;;;;1.80;0.28;;;;;;;30.42;32.72;92237.56;2050949;70;20245;-76
2021/08/05 11:36:32;;;;;;;0.98;0.40;;;;;;;29.84;35.44;92235.78;2051089;70;20586;-76
2021/08/05 11:39:04;;;;;;;1.42;0.50;;;;;;;28.74;37.55;92236.84;2051071;70;20503;-76
2021/08/05 11:41:48;;;;;;;0.82;0.60;;;;;;;28.25;39.46;92231.69;2051161;70;20242;-77